PWSweather.com
Personal Weather Stations
Station Observations
SAGINAW
Brevator Township, Saginaw, MN 55779

Brevator TownshipSaginaw, MN 55779

Lat: 46.8456781036821, Lon: -92.4693220853806

Elevation: 1332

Station Type: Davis Vantage Vue

http://saginawmnwx.bplaced.net/index.php

Latest ConditionsUpdated 12:50:00 PM CDT Sunday, May 19, 2019
Currently Today's Max Today's Min Today's Average
Temperature 32.4°F0.2°C 41.5°F5.3°C 32.4°F0.2°C 37.8°F3.2°C
Dew Point 31.1°F-0.5°C 36.7°F2.6°C 31.1°F-0.5°C 34.6°F1.4°C
Winds Calm Calm 5.0 mph -8.0 kmh - - 3.0 mph 4.8 kmh
Wind Gusts 2.0 mph3.2 kmh 18.0 mph29.0 kmh - -
Humidity 95% 95% 82% 88%
Pressure 29.94 in1013.9 mb 29.94 in1013.9 mb 29.86 in1011.2 mb -
Precipitation - 0.23 in5.8 mm - -
Hour Temp Dew Point Humidity Winds Wind Gusts Pressure Precip Precip Rate Daily Precip Total
12:50 PM 32.4°F0.2°C 31.1°F-0.5°C 95% Calm Calm 2.0 mph3.2 kmh 29.94 in1013.9 mb 0.02 in0.5 mm 0.00 in0.0 mm 0.23 in5.8 mm
12:40 PM 32.6°F0.3°C 31.3°F-0.4°C 95% Calm Calm 2.0 mph3.2 kmh 29.94 in1013.9 mb 0.02 in0.5 mm 0.00 in0.0 mm 0.23 in5.8 mm
12:20 PM 32.9°F0.5°C 31.6°F-0.2°C 95% 1.0 mph NNE1.6 kmh NNE 6.0 mph9.7 kmh 29.94 in1013.9 mb 0.03 in0.8 mm 0.06 in1.5 mm 0.23 in5.8 mm
12:10 PM 32.9°F0.5°C 31.6°F-0.2°C 95% 2.0 mph NNE3.2 kmh NNE 5.0 mph8.0 kmh 29.94 in1013.9 mb 0.02 in0.5 mm 0.00 in0.0 mm 0.22 in5.6 mm
12:00 PM 32.7°F0.4°C 31.4°F-0.3°C 95% 1.0 mph NNE1.6 kmh NNE 4.0 mph6.4 kmh 29.93 in1013.5 mb 0.02 in0.5 mm 0.00 in0.0 mm 0.21 in5.3 mm
11:50 AM 32.7°F0.4°C 31.4°F-0.3°C 95% 1.0 mph NNE1.6 kmh NNE 3.0 mph4.8 kmh 29.93 in1013.5 mb 0.02 in0.5 mm 0.00 in0.0 mm 0.21 in5.3 mm
11:40 AM 32.7°F0.4°C 31.4°F-0.3°C 95% 1.0 mph NNE1.6 kmh NNE 7.0 mph11.3 kmh 29.93 in1013.5 mb 0.02 in0.5 mm 0.06 in1.5 mm 0.21 in5.3 mm
11:30 AM 32.8°F0.4°C 31.5°F-0.3°C 95% 1.0 mph N1.6 kmh N 4.0 mph6.4 kmh 29.93 in1013.5 mb 0.01 in0.3 mm 0.00 in0.0 mm 0.20 in5.1 mm
11:20 AM 32.8°F0.4°C 31.5°F-0.3°C 95% 1.0 mph NNE1.6 kmh NNE 4.0 mph6.4 kmh 29.92 in1013.2 mb 0.01 in0.3 mm 0.00 in0.0 mm 0.20 in5.1 mm
11:10 AM 32.7°F0.4°C 31.4°F-0.3°C 95% 1.0 mph NNE1.6 kmh NNE 5.0 mph8.0 kmh 29.92 in1013.2 mb 0.02 in0.5 mm 0.06 in1.5 mm 0.20 in5.1 mm
11:00 AM 32.7°F0.4°C 31.4°F-0.3°C 95% 1.0 mph N1.6 kmh N 4.0 mph6.4 kmh 29.93 in1013.5 mb 0.01 in0.3 mm 0.00 in0.0 mm 0.19 in4.8 mm
10:50 AM 32.8°F0.4°C 31.5°F-0.3°C 95% 2.0 mph NNE3.2 kmh NNE 8.0 mph12.9 kmh 29.92 in1013.2 mb 0.01 in0.3 mm 0.00 in0.0 mm 0.19 in4.8 mm
10:40 AM 32.9°F0.5°C 31.6°F-0.2°C 95% 2.0 mph NE3.2 kmh NE 6.0 mph9.7 kmh 29.92 in1013.2 mb 0.02 in0.5 mm 0.00 in0.0 mm 0.19 in4.8 mm
10:30 AM 33.0°F0.6°C 31.5°F-0.3°C 94% 2.0 mph NE3.2 kmh NE 6.0 mph9.7 kmh 29.92 in1013.2 mb 0.03 in0.8 mm 0.00 in0.0 mm 0.19 in4.8 mm
10:00 AM 33.4°F0.8°C 31.9°F-0.1°C 94% 3.0 mph NE4.8 kmh NE 10.0 mph16.1 kmh 29.91 in1012.9 mb 0.06 in1.5 mm 0.00 in0.0 mm 0.18 in4.6 mm
09:50 AM 33.6°F0.9°C 32.1°F0.1°C 94% 2.0 mph NE3.2 kmh NE 10.0 mph16.1 kmh 29.91 in1012.9 mb 0.06 in1.5 mm 0.06 in1.5 mm 0.17 in4.3 mm
09:40 AM 34.1°F1.2°C 32.3°F0.2°C 93% 1.0 mph NE1.6 kmh NE 6.0 mph9.7 kmh 29.91 in1012.9 mb 0.05 in1.3 mm 0.00 in0.0 mm 0.16 in4.1 mm
09:30 AM 34.4°F1.3°C 32.6°F0.3°C 93% 3.0 mph NE4.8 kmh NE 10.0 mph16.1 kmh 29.91 in1012.9 mb 0.05 in1.3 mm 0.00 in0.0 mm 0.15 in3.8 mm
09:20 AM 34.7°F1.5°C 32.9°F0.5°C 93% 4.0 mph NE6.4 kmh NE 12.0 mph19.3 kmh 29.90 in1012.5 mb 0.05 in1.3 mm 0.00 in0.0 mm 0.14 in3.6 mm
09:10 AM 35.3°F1.8°C 33.2°F0.7°C 92% 3.0 mph NE4.8 kmh NE 10.0 mph16.1 kmh 29.89 in1012.2 mb 0.05 in1.3 mm 0.06 in1.5 mm 0.13 in3.3 mm
09:00 AM 35.5°F1.9°C 33.4°F0.8°C 92% 3.0 mph NE4.8 kmh NE 10.0 mph16.1 kmh 29.90 in1012.5 mb 0.04 in1.0 mm 0.00 in0.0 mm 0.12 in3.0 mm
08:50 AM 35.7°F2.1°C 33.6°F0.9°C 92% 3.0 mph NE4.8 kmh NE 14.0 mph22.5 kmh 29.89 in1012.2 mb 0.04 in1.0 mm 0.00 in0.0 mm 0.11 in2.8 mm
08:40 AM 36.0°F2.2°C 33.6°F0.9°C 91% 4.0 mph NE6.4 kmh NE 11.0 mph17.7 kmh 29.89 in1012.2 mb 0.05 in1.3 mm 0.06 in1.5 mm 0.11 in2.8 mm
08:30 AM 36.3°F2.4°C 33.9°F1.1°C 91% 5.0 mph NE8.0 kmh NE 18.0 mph29.0 kmh 29.89 in1012.2 mb 0.04 in1.0 mm 0.00 in0.0 mm 0.10 in2.5 mm
08:20 AM 36.5°F2.5°C 34.1°F1.2°C 91% 4.0 mph NE6.4 kmh NE 9.0 mph14.5 kmh 29.89 in1012.2 mb 0.04 in1.0 mm 0.06 in1.5 mm 0.09 in2.3 mm
08:10 AM 36.5°F2.5°C 34.1°F1.2°C 91% 4.0 mph NE6.4 kmh NE 9.0 mph14.5 kmh 29.89 in1012.2 mb 0.03 in0.8 mm 0.00 in0.0 mm 0.08 in2.0 mm
08:00 AM 36.5°F2.5°C 34.1°F1.2°C 91% 4.0 mph NE6.4 kmh NE 12.0 mph19.3 kmh 29.88 in1011.9 mb 0.03 in0.8 mm 0.00 in0.0 mm 0.08 in2.0 mm
07:50 AM 36.7°F2.6°C 34.3°F1.3°C 91% 4.0 mph NE6.4 kmh NE 11.0 mph17.7 kmh 29.88 in1011.9 mb 0.03 in0.8 mm 0.00 in0.0 mm 0.07 in1.8 mm
07:40 AM 36.9°F2.7°C 34.5°F1.4°C 91% 3.0 mph NE4.8 kmh NE 11.0 mph17.7 kmh 29.88 in1011.9 mb 0.03 in0.8 mm 0.00 in0.0 mm 0.06 in1.5 mm
07:30 AM 37.0°F2.8°C 34.6°F1.4°C 91% 3.0 mph NE4.8 kmh NE 10.0 mph16.1 kmh 29.89 in1012.2 mb 0.03 in0.8 mm 0.00 in0.0 mm 0.06 in1.5 mm
07:20 AM 37.2°F2.9°C 34.5°F1.4°C 90% 4.0 mph NE6.4 kmh NE 11.0 mph17.7 kmh 29.88 in1011.9 mb 0.03 in0.8 mm 0.00 in0.0 mm 0.05 in1.3 mm
07:10 AM 37.2°F2.9°C 34.5°F1.4°C 90% 4.0 mph NE6.4 kmh NE 11.0 mph17.7 kmh 29.88 in1011.9 mb 0.04 in1.0 mm 0.00 in0.0 mm 0.05 in1.3 mm
07:00 AM 37.2°F2.9°C 34.5°F1.4°C 90% 3.0 mph NE4.8 kmh NE 10.0 mph16.1 kmh 29.88 in1011.9 mb 0.04 in1.0 mm 0.01 in0.3 mm 0.05 in1.3 mm
06:50 AM 37.5°F3.1°C 34.8°F1.6°C 90% 5.0 mph NE8.0 kmh NE 13.0 mph20.9 kmh 29.88 in1011.9 mb 0.03 in0.8 mm 0.06 in1.5 mm 0.04 in1.0 mm
06:40 AM 37.6°F3.1°C 34.7°F1.5°C 89% 3.0 mph NE4.8 kmh NE 10.0 mph16.1 kmh 29.88 in1011.9 mb 0.02 in0.5 mm 0.00 in0.0 mm 0.03 in0.8 mm
06:30 AM 37.9°F3.3°C 34.7°F1.5°C 88% 4.0 mph NE6.4 kmh NE 14.0 mph22.5 kmh 29.88 in1011.9 mb 0.02 in0.5 mm 0.06 in1.5 mm 0.03 in0.8 mm
06:20 AM 38.4°F3.6°C 34.9°F1.6°C 87% 4.0 mph NE6.4 kmh NE 11.0 mph17.7 kmh 29.89 in1012.2 mb 0.01 in0.3 mm 0.06 in1.5 mm 0.02 in0.5 mm
06:10 AM 38.8°F3.8°C 35.3°F1.8°C 87% 3.0 mph NE4.8 kmh NE 11.0 mph17.7 kmh 29.89 in1012.2 mb 0.00 in0.0 mm 0.00 in0.0 mm 0.01 in0.3 mm
06:00 AM 38.9°F3.8°C 35.4°F1.9°C 87% 3.0 mph NE4.8 kmh NE 10.0 mph16.1 kmh 29.88 in1011.9 mb 0.01 in0.3 mm 0.00 in0.0 mm 0.01 in0.3 mm
05:50 AM 39.5°F4.2°C 35.7°F2.1°C 86% 2.0 mph NE3.2 kmh NE 7.0 mph11.3 kmh 29.87 in1011.5 mb 0.01 in0.3 mm 0.00 in0.0 mm 0.01 in0.3 mm
05:40 AM 39.8°F4.3°C 36.0°F2.2°C 86% 3.0 mph NE4.8 kmh NE 7.0 mph11.3 kmh 29.87 in1011.5 mb 0.01 in0.3 mm 0.00 in0.0 mm 0.01 in0.3 mm
05:30 AM 39.9°F4.4°C 35.8°F2.1°C 85% 4.0 mph NE6.4 kmh NE 11.0 mph17.7 kmh 29.86 in1011.2 mb 0.01 in0.3 mm 0.00 in0.0 mm 0.01 in0.3 mm
05:20 AM 39.9°F4.4°C 36.1°F2.3°C 86% 3.0 mph NE4.8 kmh NE 12.0 mph19.3 kmh 29.86 in1011.2 mb 0.01 in0.3 mm 0.00 in0.0 mm 0.01 in0.3 mm
05:10 AM 40.0°F4.4°C 35.9°F2.2°C 85% 4.0 mph NE6.4 kmh NE 12.0 mph19.3 kmh 29.86 in1011.2 mb 0.01 in0.3 mm 0.06 in1.5 mm 0.01 in0.3 mm
05:00 AM 40.3°F4.6°C 36.1°F2.3°C 85% 4.0 mph NE6.4 kmh NE 12.0 mph19.3 kmh 29.86 in1011.2 mb 0.00 in0.0 mm 0.00 in0.0 mm 0.00 in0.0 mm
04:50 AM 40.7°F4.8°C 36.2°F2.3°C 84% 4.0 mph NE6.4 kmh NE 14.0 mph22.5 kmh 29.87 in1011.5 mb 0.00 in0.0 mm 0.00 in0.0 mm 0.00 in0.0 mm
04:40 AM 41.0°F5.0°C 35.9°F2.2°C 82% 4.0 mph NE6.4 kmh NE 18.0 mph29.0 kmh 29.86 in1011.2 mb 0.00 in0.0 mm 0.00 in0.0 mm 0.00 in0.0 mm
04:30 AM 40.9°F4.9°C 35.8°F2.1°C 82% 5.0 mph NE8.0 kmh NE 11.0 mph17.7 kmh 29.86 in1011.2 mb 0.00 in0.0 mm 0.00 in0.0 mm 0.00 in0.0 mm
04:20 AM 40.9°F4.9°C 35.8°F2.1°C 82% 4.0 mph NE6.4 kmh NE 13.0 mph20.9 kmh 29.87 in1011.5 mb 0.00 in0.0 mm 0.00 in0.0 mm 0.00 in0.0 mm
04:10 AM 40.9°F4.9°C 36.1°F2.3°C 83% 3.0 mph NE4.8 kmh NE 12.0 mph19.3 kmh 29.87 in1011.5 mb 0.00 in0.0 mm 0.00 in0.0 mm 0.00 in0.0 mm
04:00 AM 40.9°F4.9°C 36.1°F2.3°C 83% 4.0 mph NE6.4 kmh NE 14.0 mph22.5 kmh 29.88 in1011.9 mb 0.00 in0.0 mm 0.00 in0.0 mm 0.00 in0.0 mm
03:50 AM 40.8°F4.9°C 36.0°F2.2°C 83% 4.0 mph NE6.4 kmh NE 12.0 mph19.3 kmh 29.88 in1011.9 mb 0.00 in0.0 mm 0.00 in0.0 mm 0.00 in0.0 mm
03:40 AM 40.7°F4.8°C 36.2°F2.3°C 84% 4.0 mph NE6.4 kmh NE 9.0 mph14.5 kmh 29.88 in1011.9 mb 0.00 in0.0 mm 0.00 in0.0 mm 0.00 in0.0 mm
03:30 AM 40.6°F4.8°C 36.4°F2.4°C 85% 2.0 mph NE3.2 kmh NE 8.0 mph12.9 kmh 29.89 in1012.2 mb 0.00 in0.0 mm 0.00 in0.0 mm 0.00 in0.0 mm
03:20 AM 40.6°F4.8°C 36.1°F2.3°C 84% 4.0 mph NE6.4 kmh NE 12.0 mph19.3 kmh 29.89 in1012.2 mb 0.00 in0.0 mm 0.00 in0.0 mm 0.00 in0.0 mm
03:10 AM 40.6°F4.8°C 36.4°F2.4°C 85% 3.0 mph NE4.8 kmh NE 12.0 mph19.3 kmh 29.90 in1012.5 mb 0.00 in0.0 mm 0.00 in0.0 mm 0.00 in0.0 mm
03:00 AM 40.5°F4.7°C 36.3°F2.4°C 85% 4.0 mph NE6.4 kmh NE 11.0 mph17.7 kmh 29.90 in1012.5 mb 0.00 in0.0 mm 0.00 in0.0 mm 0.00 in0.0 mm
02:50 AM 40.6°F4.8°C 36.4°F2.4°C 85% 3.0 mph NE4.8 kmh NE 10.0 mph16.1 kmh 29.92 in1013.2 mb 0.00 in0.0 mm 0.00 in0.0 mm 0.00 in0.0 mm
02:40 AM 40.6°F4.8°C 36.1°F2.3°C 84% 3.0 mph NE4.8 kmh NE 11.0 mph17.7 kmh 29.92 in1013.2 mb 0.00 in0.0 mm 0.00 in0.0 mm 0.00 in0.0 mm
02:30 AM 40.7°F4.8°C 36.2°F2.3°C 84% 4.0 mph NE6.4 kmh NE 14.0 mph22.5 kmh 29.93 in1013.5 mb 0.00 in0.0 mm 0.00 in0.0 mm 0.00 in0.0 mm
02:20 AM 40.7°F4.8°C 36.2°F2.3°C 84% 3.0 mph NE4.8 kmh NE 11.0 mph17.7 kmh 29.93 in1013.5 mb 0.00 in0.0 mm 0.00 in0.0 mm 0.00 in0.0 mm
02:10 AM 40.8°F4.9°C 36.3°F2.4°C 84% 3.0 mph NE4.8 kmh NE 11.0 mph17.7 kmh 29.93 in1013.5 mb 0.00 in0.0 mm 0.00 in0.0 mm 0.00 in0.0 mm
02:00 AM 40.8°F4.9°C 36.3°F2.4°C 84% 2.0 mph NE3.2 kmh NE 7.0 mph11.3 kmh 29.93 in1013.5 mb 0.00 in0.0 mm 0.00 in0.0 mm 0.00 in0.0 mm
01:50 AM 40.9°F4.9°C 36.4°F2.4°C 84% 3.0 mph NE4.8 kmh NE 9.0 mph14.5 kmh 29.93 in1013.5 mb 0.00 in0.0 mm 0.00 in0.0 mm 0.00 in0.0 mm
01:40 AM 40.9°F4.9°C 36.4°F2.4°C 84% 4.0 mph NE6.4 kmh NE 11.0 mph17.7 kmh 29.93 in1013.5 mb 0.00 in0.0 mm 0.00 in0.0 mm 0.00 in0.0 mm
01:30 AM 41.0°F5.0°C 36.5°F2.5°C 84% 4.0 mph NE6.4 kmh NE 11.0 mph17.7 kmh 29.93 in1013.5 mb 0.00 in0.0 mm 0.00 in0.0 mm 0.00 in0.0 mm
01:20 AM 41.2°F5.1°C 36.7°F2.6°C 84% 3.0 mph NE4.8 kmh NE 10.0 mph16.1 kmh 29.93 in1013.5 mb 0.00 in0.0 mm 0.00 in0.0 mm 0.00 in0.0 mm
01:10 AM 41.3°F5.2°C 36.5°F2.5°C 83% 2.0 mph NE3.2 kmh NE 7.0 mph11.3 kmh 29.93 in1013.5 mb 0.00 in0.0 mm 0.00 in0.0 mm 0.00 in0.0 mm
01:00 AM 41.5°F5.3°C 36.7°F2.6°C 83% 4.0 mph NE6.4 kmh NE 10.0 mph16.1 kmh 29.92 in1013.2 mb 0.00 in0.0 mm 0.00 in0.0 mm 0.00 in0.0 mm
12:50 AM 41.5°F5.3°C 36.7°F2.6°C 83% 3.0 mph NE4.8 kmh NE 10.0 mph16.1 kmh 29.92 in1013.2 mb 0.00 in0.0 mm 0.00 in0.0 mm 0.00 in0.0 mm
12:40 AM 41.5°F5.3°C 36.7°F2.6°C 83% 3.0 mph NE4.8 kmh NE 10.0 mph16.1 kmh 29.92 in1013.2 mb 0.00 in0.0 mm 0.00 in0.0 mm 0.00 in0.0 mm
12:30 AM 41.5°F5.3°C 36.7°F2.6°C 83% 3.0 mph NE4.8 kmh NE 14.0 mph22.5 kmh 29.91 in1012.9 mb 0.00 in0.0 mm 0.00 in0.0 mm 0.00 in0.0 mm
12:20 AM 41.3°F5.2°C 36.5°F2.5°C 83% 3.0 mph NE4.8 kmh NE 9.0 mph14.5 kmh 29.92 in1013.2 mb 0.00 in0.0 mm 0.00 in0.0 mm 0.00 in0.0 mm
12:00 AM 41.1°F5.1°C 36.6°F2.6°C 84% 3.0 mph NE4.8 kmh NE 10.0 mph16.1 kmh 29.92 in1013.2 mb 0.00 in0.0 mm 0.00 in0.0 mm 0.51 in13.0 mm